createdAt,value
2022-11-17T00:02:44.748Z,8.3
2022-11-17T00:08:23.701Z,8.3
2022-11-17T00:14:08.118Z,8.3
2022-11-17T00:19:14.838Z,8.3
2022-11-17T00:24:52.076Z,8.3
2022-11-17T00:30:14.043Z,8.3
2022-11-17T00:35:37.136Z,8.4
2022-11-17T00:40:44.283Z,8.4
2022-11-17T00:51:13.873Z,8.4
2022-11-17T00:56:21.737Z,8.4
2022-11-17T01:01:43.897Z,8.4
2022-11-17T01:06:51.412Z,8.4
2022-11-17T01:12:14.315Z,8.4
2022-11-17T01:17:36.300Z,8.4
2022-11-17T01:23:14.554Z,8.5
2022-11-17T01:28:06.207Z,8.5
2022-11-17T01:33:13.209Z,8.5
2022-11-17T01:38:04.459Z,8.5
2022-11-17T01:43:26.584Z,8.5
2022-11-17T01:48:34.143Z,8.5
2022-11-17T01:53:55.598Z,8.5
2022-11-17T01:59:18.126Z,8.6
2022-11-17T02:04:41.471Z,8.6
2022-11-17T02:10:18.780Z,8.6
2022-11-17T02:15:57.076Z,8.6
2022-11-17T02:21:29.594Z,8.6
2022-11-17T02:26:07.397Z,8.6
2022-11-17T02:31:46.204Z,8.6
2022-11-17T02:36:53.211Z,8.6
2022-11-17T02:42:15.117Z,8.6
2022-11-17T02:47:38.301Z,8.6
2022-11-17T02:53:04.360Z,8.6
2022-11-17T02:58:11.735Z,8.6
2022-11-17T03:03:34.252Z,8.7
2022-11-17T03:08:58.879Z,8.6
2022-11-17T03:14:36.041Z,8.7
2022-11-17T03:20:13.959Z,8.7
2022-11-17T03:25:52.167Z,8.7
2022-11-17T03:31:32.713Z,8.8
2022-11-17T03:37:16.704Z,8.8
2022-11-17T03:42:54.872Z,8.8
2022-11-17T03:47:46.102Z,8.8
2022-11-17T03:53:08.928Z,8.8
2022-11-17T03:58:32.080Z,8.8
2022-11-17T04:04:09.173Z,8.8
2022-11-17T04:09:33.495Z,8.8
2022-11-17T04:15:12.566Z,8.8
2022-11-17T04:20:52.679Z,8.7
2022-11-17T04:26:31.392Z,8.8
2022-11-17T04:31:53.494Z,8.8
2022-11-17T04:37:31.084Z,8.8
2022-11-17T04:42:53.594Z,8.7
2022-11-17T04:48:32.058Z,8.8
2022-11-17T04:54:14.553Z,8.8
2022-11-17T04:59:40.062Z,8.8
2022-11-17T05:05:03.397Z,8.8
2022-11-17T05:10:40.797Z,8.8
2022-11-17T05:16:03.075Z,8.8
2022-11-17T05:21:28.456Z,8.8
2022-11-17T05:27:05.934Z,8.8
2022-11-17T05:32:43.942Z,8.8
2022-11-17T05:38:26.811Z,8.8
2022-11-17T05:44:09.671Z,8.8
2022-11-17T05:49:32.260Z,8.8
2022-11-17T05:54:43.593Z,8.8
2022-11-17T06:00:08.382Z,8.9
2022-11-17T06:05:37.586Z,8.9
2022-11-17T06:11:00.647Z,8.9
2022-11-17T06:16:38.736Z,8.9
2022-11-17T06:22:28.330Z,9
2022-11-17T06:27:55.144Z,9
2022-11-17T06:33:34.253Z,9.1
2022-11-17T06:38:56.338Z,9.1
2022-11-17T06:44:38.388Z,9.1
2022-11-17T06:50:16.534Z,9.2
2022-11-17T06:56:01.435Z,9.4
2022-11-17T07:01:24.814Z,9.5
2022-11-17T07:06:48.291Z,9.6
2022-11-17T07:12:32.122Z,9.6
2022-11-17T07:17:54.721Z,9.7
2022-11-17T07:23:18.387Z,9.8
2022-11-17T07:29:02.523Z,9.9
2022-11-17T07:34:41.082Z,9.9
2022-11-17T07:40:19.557Z,10.1
2022-11-17T07:46:01.672Z,10.2
2022-11-17T07:51:39.743Z,10.6
2022-11-17T07:57:03.172Z,11.2
2022-11-17T08:02:48.257Z,12.3
2022-11-17T08:08:17.674Z,14.7
2022-11-17T08:13:26.187Z,16.5
2022-11-17T08:18:52.575Z,17.1
2022-11-17T08:24:16.022Z,16.9
2022-11-17T08:29:39.224Z,17.3
2022-11-17T08:35:02.071Z,25.7
2022-11-17T08:40:27.945Z,36.3
2022-11-17T08:46:10.574Z,48.2
2022-11-17T08:51:34.594Z,44.6
2022-11-17T08:57:14.292Z,40.6
2022-11-17T09:02:52.999Z,41.9
2022-11-17T09:09:04.203Z,43.3
2022-11-17T09:14:30.988Z,36.3
2022-11-17T09:20:09.476Z,41
2022-11-17T09:25:36.352Z,53
2022-11-17T09:31:01.521Z,50.3
2022-11-17T09:36:25.580Z,46.3
2022-11-17T09:41:50.590Z,45.4
2022-11-17T09:47:34.752Z,47.1
2022-11-17T09:53:29.575Z,50.9
2022-11-17T09:59:14.018Z,45.1
2022-11-17T10:04:58.036Z,37.4
2022-11-17T10:10:37.954Z,34.6
2022-11-17T10:16:16.270Z,33.6
2022-11-17T10:21:54.519Z,33.1
2022-11-17T10:27:32.912Z,32.3
2022-11-17T10:33:11.216Z,32.4
2022-11-17T10:38:55.988Z,38.7
2022-11-17T10:44:41.949Z,41.4
2022-11-17T10:50:29.335Z,51.3
2022-11-17T10:56:08.569Z,42.8
2022-11-17T11:01:46.568Z,35.2
2022-11-17T11:07:29.803Z,32.5
2022-11-17T11:13:08.089Z,31
2022-11-17T11:18:49.214Z,29.7
2022-11-17T11:24:11.587Z,30.4
2022-11-17T11:29:54.702Z,34
2022-11-17T11:35:35.081Z,36.3
2022-11-17T11:41:13.201Z,36.4
2022-11-17T11:46:56.898Z,34.8
2022-11-17T11:52:40.613Z,33.6
2022-11-17T11:58:06.369Z,33.3
2022-11-17T12:03:47.986Z,33.2
2022-11-17T12:09:26.559Z,32.2
2022-11-17T12:15:10.101Z,30.7
2022-11-17T12:20:48.795Z,29.2
2022-11-17T12:26:28.261Z,27.6
2022-11-17T12:32:06.645Z,26.1
2022-11-17T12:37:29.354Z,24.8
2022-11-17T12:43:07.790Z,23.9
2022-11-17T12:49:27.444Z,22.9
2022-11-17T12:55:06.434Z,22.6
2022-11-17T13:00:45.934Z,23.1
2022-11-17T13:06:56.556Z,23.3
2022-11-17T13:12:34.783Z,23.1
2022-11-17T13:18:17.880Z,22.9
2022-11-17T13:23:40.999Z,23.2
2022-11-17T13:29:09.572Z,27.2
2022-11-17T13:34:52.017Z,30.8
2022-11-17T13:40:36.424Z,32.9
2022-11-17T13:46:14.776Z,33.9
2022-11-17T13:51:53.025Z,33.6
2022-11-17T13:57:35.049Z,33.3
2022-11-17T14:03:15.113Z,32.1
2022-11-17T14:08:54.604Z,31.2
2022-11-17T14:14:33.015Z,29.6
2022-11-17T14:20:11.273Z,27.9
2022-11-17T14:25:57.268Z,26.4
2022-11-17T14:31:35.806Z,24.9
2022-11-17T14:37:27.900Z,23.6
2022-11-17T14:42:53.783Z,22.4
2022-11-17T14:48:36.774Z,21.3
2022-11-17T14:53:59.744Z,20.3
2022-11-17T14:59:07.176Z,19.4
2022-11-17T15:05:22.085Z,18.5
2022-11-17T15:11:05.299Z,17.5
2022-11-17T15:16:44.354Z,16.5
2022-11-17T15:22:07.102Z,15.7
2022-11-17T15:27:50.700Z,15.1
2022-11-17T15:33:14.240Z,14.6
2022-11-17T15:38:52.571Z,14.1
2022-11-17T15:44:23.651Z,13.8
2022-11-17T15:50:03.563Z,13.4
2022-11-17T15:56:14.136Z,13
2022-11-17T16:01:52.816Z,12.8
2022-11-17T16:07:15.428Z,12.5
2022-11-17T16:12:42.598Z,12.3
2022-11-17T16:18:20.270Z,12.1
2022-11-17T16:23:58.498Z,11.9
2022-11-17T16:29:21.023Z,11.8
2022-11-17T16:34:48.254Z,11.6
2022-11-17T16:40:58.533Z,11.4
2022-11-17T16:46:21.417Z,11.2
2022-11-17T16:51:58.754Z,11
2022-11-17T16:57:40.824Z,10.9
2022-11-17T17:03:03.363Z,10.8
2022-11-17T17:08:42.343Z,10.6
2022-11-17T17:14:05.242Z,10.4
2022-11-17T17:19:11.793Z,10.3
2022-11-17T17:24:50.415Z,10.2
2022-11-17T17:29:57.118Z,10
2022-11-17T17:35:37.067Z,9.9
2022-11-17T17:40:59.506Z,9.8
2022-11-17T17:46:37.334Z,9.6
2022-11-17T17:52:15.458Z,9.5
2022-11-17T17:57:22.367Z,9.4
2022-11-17T18:02:44.137Z,9.3
2022-11-17T18:08:24.764Z,9.1
2022-11-17T18:14:06.557Z,9.1
2022-11-17T18:19:50.210Z,9
2022-11-17T18:25:35.211Z,9
2022-11-17T18:31:13.438Z,8.9
2022-11-17T18:36:51.645Z,8.9
2022-11-17T18:42:29.403Z,9
2022-11-17T18:48:13.780Z,8.9
2022-11-17T18:54:16.072Z,8.8
2022-11-17T18:59:53.853Z,8.7
2022-11-17T19:05:16.761Z,8.8
2022-11-17T19:10:54.785Z,8.7
2022-11-17T19:16:33.094Z,8.6
2022-11-17T19:22:11.847Z,8.5
2022-11-17T19:27:35.776Z,8.4
2022-11-17T19:33:01.348Z,8.3
2022-11-17T19:38:35.370Z,8.2
2022-11-17T19:44:19.174Z,8.1
2022-11-17T19:49:56.429Z,8.1
2022-11-17T19:55:33.798Z,8.1
2022-11-17T20:01:00.542Z,8.1
2022-11-17T20:06:23.479Z,8.1
2022-11-17T20:11:31.212Z,8.1
2022-11-17T20:17:07.375Z,8
2022-11-17T20:22:45.972Z,7.9
2022-11-17T20:28:14.013Z,7.8
2022-11-17T20:33:57.676Z,7.7
2022-11-17T20:39:37.402Z,7.7
2022-11-17T20:45:15.203Z,7.6
2022-11-17T20:50:37.430Z,7.4
2022-11-17T20:56:00.525Z,7.3
2022-11-17T21:01:40.394Z,7.1
2022-11-17T21:07:09.199Z,6.9
2022-11-17T21:12:47.871Z,6.8
2022-11-17T21:18:10.603Z,6.6
2022-11-17T21:23:53.828Z,6.6
2022-11-17T21:29:39.442Z,6.4
2022-11-17T21:35:07.158Z,6.3
2022-11-17T21:40:29.816Z,6.2
2022-11-17T21:45:52.157Z,6.2
2022-11-17T21:51:29.939Z,6.1
2022-11-17T21:57:07.725Z,6.1
2022-11-17T22:02:14.972Z,6
2022-11-17T22:07:54.089Z,5.9
2022-11-17T22:13:17.143Z,5.9
2022-11-17T22:18:54.252Z,5.8
2022-11-17T22:24:32.286Z,5.7
2022-11-17T22:30:24.706Z,5.7
2022-11-17T22:36:05.752Z,5.6
2022-11-17T22:41:28.597Z,5.4
2022-11-17T22:47:13.136Z,5.3
2022-11-17T22:52:50.506Z,5.3
2022-11-17T22:58:28.100Z,5.1
2022-11-17T23:03:55.808Z,5
2022-11-17T23:09:21.328Z,5
2022-11-17T23:15:18.240Z,5
2022-11-17T23:20:56.570Z,4.9
2022-11-17T23:26:19.146Z,4.9
2022-11-17T23:31:57.104Z,4.8
2022-11-17T23:37:37.963Z,4.6
2022-11-17T23:43:17.469Z,4.6
2022-11-17T23:48:55.304Z,4.4
2022-11-17T23:54:32.838Z,4.3
